createdAt,value
2023-03-21T00:01:55.645Z,8.80
2023-03-21T00:04:29.661Z,8.80
2023-03-21T00:11:53.006Z,9.40
2023-03-21T00:14:20.588Z,8.90
2023-03-21T00:16:52.597Z,8.90
2023-03-21T00:19:21.196Z,8.70
2023-03-21T00:24:37.150Z,8.60
2023-03-21T00:27:29.826Z,8.70
2023-03-21T00:29:51.681Z,8.70
2023-03-21T00:32:19.464Z,9.00
2023-03-21T00:34:59.586Z,8.30
2023-03-21T00:44:53.929Z,8.80
2023-03-21T00:47:20.853Z,8.30
2023-03-21T00:52:20.431Z,8.10
2023-03-21T00:54:51.688Z,8.90
2023-03-21T01:04:50.537Z,8.30
2023-03-21T01:14:39.571Z,8.60
2023-03-21T01:19:50.174Z,8.00
2023-03-21T01:22:17.552Z,8.40
2023-03-21T01:24:52.995Z,8.50
2023-03-21T01:34:45.275Z,8.50
2023-03-21T01:39:39.262Z,9.00
2023-03-21T01:44:56.851Z,8.60
2023-03-21T01:47:24.112Z,8.70
2023-03-21T01:49:55.538Z,8.50
2023-03-21T01:52:37.807Z,8.30
2023-03-21T01:55:08.271Z,8.30
2023-03-21T01:57:49.453Z,8.20
2023-03-21T02:00:21.556Z,8.30
2023-03-21T02:02:58.258Z,8.30
2023-03-21T02:05:49.676Z,8.20
2023-03-21T02:08:16.814Z,8.40
2023-03-21T02:10:47.426Z,8.20
2023-03-21T02:13:15.944Z,8.30
2023-03-21T02:15:53.809Z,8.30
2023-03-21T02:18:29.174Z,8.20
2023-03-21T02:21:31.538Z,8.50
2023-03-21T02:24:25.743Z,8.30
2023-03-21T02:27:11.893Z,8.30
2023-03-21T02:30:08.708Z,8.30
2023-03-21T02:32:55.914Z,8.00
2023-03-21T02:35:37.082Z,7.90
2023-03-21T02:38:18.359Z,8.10
2023-03-21T02:41:20.034Z,8.00
2023-03-21T02:44:17.137Z,8.10
2023-03-21T02:47:05.546Z,7.90
2023-03-21T02:49:50.941Z,7.90
2023-03-21T02:52:37.727Z,8.00
2023-03-21T02:55:27.239Z,7.80
2023-03-21T02:57:56.417Z,7.80
2023-03-21T03:00:27.561Z,7.80
2023-03-21T03:03:08.243Z,8.10
2023-03-21T03:05:43.884Z,7.90
2023-03-21T03:09:01.518Z,7.40
2023-03-21T03:11:34.103Z,7.40
2023-03-21T03:14:40.039Z,8.00
2023-03-21T03:17:32.884Z,7.50
2023-03-21T03:20:21.022Z,7.70
2023-03-21T03:23:31.504Z,7.70
2023-03-21T03:26:13.077Z,7.90
2023-03-21T03:28:46.827Z,7.70
2023-03-21T03:31:16.697Z,7.60
2023-03-21T03:33:49.723Z,8.20
2023-03-21T03:36:31.119Z,7.80
2023-03-21T03:38:59.815Z,7.40
2023-03-21T03:41:29.977Z,7.60
2023-03-21T03:44:01.326Z,7.60
2023-03-21T03:46:36.135Z,7.70
2023-03-21T03:49:10.558Z,7.80
2023-03-21T03:51:54.538Z,7.70
2023-03-21T03:54:32.364Z,7.40
2023-03-21T03:59:27.047Z,7.50
2023-03-21T04:06:53.464Z,7.70
2023-03-21T04:17:09.033Z,7.50
2023-03-21T04:24:33.822Z,7.50
2023-03-21T04:27:00.947Z,7.20
2023-03-21T04:29:29.837Z,7.30
2023-03-21T04:34:28.278Z,7.40
2023-03-21T04:36:56.254Z,7.50
2023-03-21T04:39:24.747Z,7.40
2023-03-21T04:46:46.257Z,7.20
2023-03-21T04:51:41.232Z,7.40
2023-03-21T04:56:35.584Z,7.50
2023-03-21T04:59:07.421Z,7.30
2023-03-21T05:04:03.103Z,7.50
2023-03-21T05:09:01.854Z,7.40
2023-03-21T05:11:30.980Z,7.10
2023-03-21T05:13:58.759Z,7.60
2023-03-21T05:16:30.530Z,7.50
2023-03-21T05:19:04.888Z,7.20
2023-03-21T05:21:41.319Z,7.40
2023-03-21T05:24:17.484Z,7.70
2023-03-21T05:26:50.415Z,7.50
2023-03-21T05:29:19.415Z,7.40
2023-03-21T05:31:46.516Z,7.30
2023-03-21T05:34:14.433Z,6.90
2023-03-21T05:36:41.310Z,7.50
2023-03-21T05:44:02.885Z,8.00
2023-03-21T05:48:57.240Z,7.50
2023-03-21T05:51:24.126Z,8.00
2023-03-21T05:53:51.922Z,7.90
2023-03-21T06:01:14.153Z,8.00
2023-03-21T06:03:41.319Z,7.90
2023-03-21T06:08:35.974Z,8.30
2023-03-21T06:11:03.072Z,7.80
2023-03-21T06:15:59.761Z,7.90
2023-03-21T06:33:12.875Z,8.00
2023-03-21T06:35:39.953Z,7.80
2023-03-21T06:40:35.454Z,7.90
2023-03-21T06:50:24.709Z,7.80
2023-03-21T06:55:23.078Z,8.30
2023-03-21T07:02:45.218Z,8.10
2023-03-21T07:07:40.405Z,8.10
2023-03-21T07:10:10.307Z,8.30
2023-03-21T07:15:04.778Z,8.50
2023-03-21T07:20:00.113Z,8.10
2023-03-21T07:25:04.426Z,8.20
2023-03-21T07:29:59.575Z,8.80
2023-03-21T07:32:29.923Z,8.60
2023-03-21T07:34:57.064Z,8.60
2023-03-21T07:39:52.028Z,8.50
2023-03-21T07:42:19.426Z,8.70
2023-03-21T07:44:46.345Z,9.00
2023-03-21T07:47:13.145Z,8.90
2023-03-21T07:57:02.314Z,8.60
2023-03-21T07:59:29.176Z,8.60
2023-03-21T08:04:23.657Z,8.70
2023-03-21T08:06:51.265Z,8.40
2023-03-21T08:09:18.075Z,8.40
2023-03-21T08:16:39.739Z,8.30
2023-03-21T08:19:06.658Z,9.00
2023-03-21T08:21:33.541Z,8.90
2023-03-21T08:26:28.204Z,8.80
2023-03-21T08:31:22.792Z,9.20
2023-03-21T08:36:22.710Z,9.00
2023-03-21T08:38:54.186Z,8.70
2023-03-21T08:51:11.423Z,9.20
2023-03-21T09:01:00.481Z,9.30
2023-03-21T09:05:54.736Z,8.70
2023-03-21T09:08:23.519Z,9.40
2023-03-21T09:10:54.260Z,9.30
2023-03-21T09:13:21.698Z,9.00
2023-03-21T09:18:18.313Z,8.90
2023-03-21T09:20:47.345Z,9.50
2023-03-21T09:23:15.348Z,9.70
2023-03-21T09:28:10.679Z,9.20
2023-03-21T09:33:13.188Z,9.30
2023-03-21T09:35:40.739Z,9.00
2023-03-21T09:41:03.579Z,9.20
2023-03-21T09:43:58.761Z,8.70
2023-03-21T09:46:32.008Z,9.20
2023-03-21T09:49:02.012Z,9.10
2023-03-21T09:51:37.219Z,9.00
2023-03-21T09:54:12.980Z,9.00
2023-03-21T09:56:43.160Z,9.40
2023-03-21T09:59:21.631Z,9.10
2023-03-21T10:01:49.570Z,9.00
2023-03-21T10:04:18.882Z,8.60
2023-03-21T10:06:54.140Z,9.00
2023-03-21T10:09:24.657Z,9.00
2023-03-21T10:11:58.054Z,9.00
2023-03-21T10:14:30.147Z,9.00
2023-03-21T10:17:04.539Z,9.50
2023-03-21T10:24:33.418Z,9.30
2023-03-21T10:27:01.310Z,9.60
2023-03-21T10:29:33.274Z,9.10
2023-03-21T10:32:00.818Z,9.10
2023-03-21T10:34:40.940Z,9.00
2023-03-21T10:39:40.274Z,9.10
2023-03-21T10:44:36.422Z,9.10
2023-03-21T10:47:09.117Z,9.10
2023-03-21T10:50:05.776Z,8.70
2023-03-21T10:52:29.954Z,9.30
2023-03-21T10:55:28.775Z,9.10
2023-03-21T10:58:00.405Z,9.50
2023-03-21T11:00:36.052Z,9.50
2023-03-21T11:03:03.848Z,9.60
2023-03-21T11:05:41.016Z,9.60
2023-03-21T11:08:18.909Z,9.70
2023-03-21T11:10:58.984Z,9.50
2023-03-21T11:13:33.864Z,9.40
2023-03-21T11:16:23.009Z,10.90
2023-03-21T11:18:51.578Z,10.80
2023-03-21T11:21:18.653Z,11.40
2023-03-21T11:23:48.468Z,11.40
2023-03-21T11:26:29.844Z,11.50
2023-03-21T11:31:40.618Z,11.30
2023-03-21T11:34:09.629Z,14.50
2023-03-21T11:36:41.609Z,12.30
2023-03-21T11:39:11.252Z,11.60
2023-03-21T11:41:41.137Z,11.60
2023-03-21T11:44:31.368Z,11.20
2023-03-21T11:46:58.710Z,11.20
2023-03-21T11:49:26.256Z,10.60
2023-03-21T11:54:27.144Z,10.90
2023-03-21T11:57:20.558Z,11.10
2023-03-21T12:00:27.916Z,10.90
2023-03-21T12:03:16.001Z,11.60
2023-03-21T12:05:52.422Z,10.90
2023-03-21T12:08:35.761Z,11.60
2023-03-21T12:11:29.570Z,11.50
2023-03-21T12:14:12.701Z,11.60
2023-03-21T12:16:48.270Z,10.80
2023-03-21T12:19:47.348Z,10.70
2023-03-21T12:22:31.077Z,10.60
2023-03-21T12:25:11.134Z,10.70
2023-03-21T12:28:03.721Z,10.70
2023-03-21T12:30:43.029Z,11.00
2023-03-21T12:33:15.170Z,11.20
2023-03-21T12:38:32.245Z,11.00
2023-03-21T12:46:38.019Z,11.00
2023-03-21T12:49:33.916Z,11.30
2023-03-21T12:52:24.403Z,11.40
2023-03-21T12:55:02.858Z,11.20
2023-03-21T12:57:32.496Z,11.00
2023-03-21T13:00:11.892Z,11.30
2023-03-21T13:03:01.364Z,11.30
2023-03-21T13:05:52.458Z,11.70
2023-03-21T13:08:35.175Z,12.10
2023-03-21T13:11:02.953Z,12.40
2023-03-21T13:15:57.734Z,11.90
2023-03-21T13:18:27.479Z,11.20
2023-03-21T13:20:57.283Z,11.10
2023-03-21T13:23:26.026Z,10.90
2023-03-21T13:25:55.474Z,10.60
2023-03-21T13:28:31.417Z,10.40
2023-03-21T13:31:21.178Z,10.20
2023-03-21T13:33:53.782Z,10.20
2023-03-21T13:36:31.792Z,10.20
2023-03-21T13:39:06.035Z,9.90
2023-03-21T13:41:38.852Z,9.90
2023-03-21T13:44:19.122Z,9.80
2023-03-21T13:46:55.079Z,9.80
2023-03-21T13:49:36.928Z,9.30
2023-03-21T13:52:09.949Z,9.80
2023-03-21T13:54:53.428Z,9.90
2023-03-21T13:57:21.696Z,9.90
2023-03-21T13:59:49.050Z,10.10
2023-03-21T14:02:34.199Z,9.70
2023-03-21T14:05:14.354Z,10.20
2023-03-21T14:07:44.547Z,10.00
2023-03-21T14:10:25.275Z,10.10
2023-03-21T14:12:53.959Z,10.00
2023-03-21T14:15:40.922Z,9.60
2023-03-21T14:18:35.192Z,10.40
2023-03-21T14:21:24.194Z,9.80
2023-03-21T14:24:16.935Z,10.60
2023-03-21T14:26:48.051Z,9.90
2023-03-21T14:29:26.181Z,10.10
2023-03-21T14:31:57.343Z,10.20
2023-03-21T14:34:26.563Z,9.50
2023-03-21T14:39:33.447Z,9.80
2023-03-21T14:42:09.420Z,9.80
2023-03-21T14:44:53.911Z,9.80
2023-03-21T14:47:25.724Z,9.70
2023-03-21T14:52:27.411Z,10.20
2023-03-21T14:54:55.951Z,9.40
2023-03-21T14:57:28.773Z,9.80
2023-03-21T14:59:59.267Z,9.80
2023-03-21T15:02:34.016Z,9.80
2023-03-21T15:05:17.283Z,9.80
2023-03-21T15:07:56.855Z,9.70
2023-03-21T15:10:26.030Z,9.70
2023-03-21T15:15:27.688Z,9.20
2023-03-21T15:18:05.290Z,9.80
2023-03-21T15:20:36.814Z,9.30
2023-03-21T15:23:15.731Z,9.20
2023-03-21T15:25:43.280Z,9.20
2023-03-21T15:28:14.582Z,8.90
2023-03-21T15:30:51.402Z,9.20
2023-03-21T15:35:58.100Z,8.70
2023-03-21T15:38:42.704Z,9.10
2023-03-21T15:44:02.414Z,8.50
2023-03-21T15:46:52.589Z,8.90
2023-03-21T15:49:32.355Z,8.50
2023-03-21T15:52:12.103Z,8.60
2023-03-21T15:54:45.848Z,8.70
2023-03-21T15:57:33.004Z,9.20
2023-03-21T16:00:21.794Z,8.60
2023-03-21T16:02:53.496Z,8.50
2023-03-21T16:05:32.720Z,8.70
2023-03-21T16:08:22.261Z,8.50
2023-03-21T16:13:17.524Z,8.70
2023-03-21T16:18:19.562Z,8.50
2023-03-21T16:20:49.209Z,8.50
2023-03-21T16:23:17.400Z,8.50
2023-03-21T16:25:44.598Z,8.10
2023-03-21T16:28:17.787Z,8.60
2023-03-21T16:30:44.711Z,8.60
2023-03-21T16:33:12.655Z,8.50
2023-03-21T16:35:40.539Z,8.60
2023-03-21T16:38:12.583Z,8.50
2023-03-21T16:40:43.073Z,8.50
2023-03-21T16:43:11.333Z,8.30
2023-03-21T16:48:06.062Z,8.50
2023-03-21T16:50:40.070Z,8.50
2023-03-21T16:53:07.538Z,8.50
2023-03-21T16:55:35.912Z,8.10
2023-03-21T16:58:03.181Z,8.70
2023-03-21T17:00:31.436Z,9.30
2023-03-21T17:03:02.134Z,8.40
2023-03-21T17:05:33.088Z,8.50
2023-03-21T17:10:32.283Z,8.30
2023-03-21T17:17:55.957Z,7.60
2023-03-21T17:20:32.360Z,8.00
2023-03-21T17:22:59.790Z,8.50
2023-03-21T17:25:27.638Z,8.10
2023-03-21T17:30:27.688Z,8.10
2023-03-21T17:32:55.434Z,8.10
2023-03-21T17:35:23.708Z,8.10
2023-03-21T17:37:52.308Z,8.10
2023-03-21T17:40:25.310Z,8.10
2023-03-21T17:45:20.730Z,8.10
2023-03-21T17:50:21.089Z,8.10
2023-03-21T17:52:50.633Z,8.00
2023-03-21T18:00:23.532Z,8.20
2023-03-21T18:02:51.594Z,7.80
2023-03-21T18:20:44.641Z,7.30
2023-03-21T18:23:14.958Z,7.40
2023-03-21T18:35:59.415Z,7.70
2023-03-21T18:38:27.818Z,7.80
2023-03-21T18:40:55.507Z,7.60
2023-03-21T18:58:29.428Z,7.70
2023-03-21T19:00:59.716Z,8.00
2023-03-21T19:03:35.792Z,8.50
2023-03-21T19:06:04.990Z,7.70
2023-03-21T19:11:05.934Z,7.60
2023-03-21T19:21:19.188Z,7.90
2023-03-21T19:38:52.851Z,7.80
2023-03-21T19:48:57.229Z,7.70
2023-03-21T19:51:29.897Z,7.50
2023-03-21T19:54:02.702Z,7.30
2023-03-21T19:56:31.547Z,7.50
2023-03-21T20:01:27.777Z,7.60
2023-03-21T20:11:39.234Z,7.40
2023-03-21T20:21:41.030Z,7.60
2023-03-21T20:24:12.829Z,7.40
2023-03-21T20:26:40.256Z,7.50
2023-03-21T20:29:56.443Z,7.20
2023-03-21T20:31:54.021Z,7.50
2023-03-21T20:39:16.578Z,7.60
2023-03-21T20:46:57.638Z,8.10
2023-03-21T20:49:24.997Z,7.80
2023-03-21T21:05:17.232Z,7.10
2023-03-21T21:07:21.940Z,7.20
2023-03-21T21:22:59.465Z,7.10
2023-03-21T21:47:44.942Z,7.00
2023-03-21T22:22:34.137Z,6.90
2023-03-21T22:49:37.005Z,6.70
2023-03-21T23:01:56.700Z,7.00
2023-03-21T23:06:51.750Z,6.70
2023-03-21T23:14:17.596Z,7.00
2023-03-21T23:16:45.160Z,6.70
2023-03-21T23:26:34.978Z,7.10
2023-03-21T23:33:59.000Z,7.00
2023-03-21T23:46:17.771Z,7.00
2023-03-21T23:48:45.669Z,7.00
2023-03-21T23:51:14.638Z,7.10
